createdAt,value
2022-10-22T00:00:37.841Z,14.45
2022-10-22T00:03:04.068Z,14.48
2022-10-22T00:05:30.400Z,14.48
2022-10-22T00:07:56.525Z,14.50
2022-10-22T00:10:22.644Z,14.47
2022-10-22T00:12:48.780Z,14.46
2022-10-22T00:15:14.910Z,14.41
2022-10-22T00:17:41.356Z,14.37
2022-10-22T00:20:07.746Z,14.39
2022-10-22T00:22:33.864Z,14.44
2022-10-22T00:24:59.985Z,14.51
2022-10-22T00:27:26.131Z,14.64
2022-10-22T00:29:52.235Z,14.71
2022-10-22T00:32:18.406Z,14.66
2022-10-22T00:34:44.564Z,14.73
2022-10-22T00:37:10.663Z,14.84
2022-10-22T00:39:36.790Z,14.89
2022-10-22T00:42:02.944Z,14.90
2022-10-22T00:44:29.111Z,14.92
2022-10-22T00:46:55.256Z,15.05
2022-10-22T00:49:21.377Z,15.05
2022-10-22T00:51:47.537Z,15.08
2022-10-22T00:54:13.746Z,15.10
2022-10-22T00:56:39.889Z,15.06
2022-10-22T00:59:06.101Z,15.07
2022-10-22T01:01:32.289Z,15.01
2022-10-22T01:03:58.430Z,14.93
2022-10-22T01:06:24.578Z,14.92
2022-10-22T01:08:50.723Z,14.94
2022-10-22T01:11:16.876Z,15.01
2022-10-22T01:13:42.983Z,14.95
2022-10-22T01:16:09.122Z,14.94
2022-10-22T01:18:35.301Z,14.95
2022-10-22T01:21:01.437Z,14.92
2022-10-22T01:23:27.569Z,14.93
2022-10-22T01:25:53.756Z,15.00
2022-10-22T01:28:19.901Z,15.00
2022-10-22T01:30:46.030Z,14.91
2022-10-22T01:33:12.147Z,15.01
2022-10-22T01:35:38.269Z,14.95
2022-10-22T01:38:04.422Z,14.96
2022-10-22T01:40:30.559Z,14.91
2022-10-22T01:42:56.698Z,15.02
2022-10-22T01:45:22.848Z,15.03
2022-10-22T01:47:48.990Z,15.04
2022-10-22T01:50:15.121Z,15.08
2022-10-22T01:52:41.258Z,15.02
2022-10-22T01:55:07.581Z,15.02
2022-10-22T01:57:33.811Z,14.77
2022-10-22T01:59:59.912Z,15.10
2022-10-22T02:02:26.032Z,15.13
2022-10-22T02:04:52.161Z,15.16
2022-10-22T02:07:18.291Z,15.10
2022-10-22T02:09:44.435Z,15.08
2022-10-22T02:12:10.556Z,15.02
2022-10-22T02:14:36.695Z,14.97
2022-10-22T02:17:02.838Z,14.91
2022-10-22T02:19:28.951Z,14.89
2022-10-22T02:21:55.056Z,14.85
2022-10-22T02:24:21.924Z,14.87
2022-10-22T02:26:48.081Z,14.82
2022-10-22T02:29:14.204Z,14.81
2022-10-22T02:31:40.333Z,14.79
2022-10-22T02:34:06.477Z,14.82
2022-10-22T02:36:32.611Z,14.73
2022-10-22T02:38:58.730Z,14.78
2022-10-22T02:41:24.863Z,14.77
2022-10-22T02:43:50.978Z,14.75
2022-10-22T02:46:17.101Z,14.69
2022-10-22T02:48:43.257Z,14.66
2022-10-22T02:51:09.395Z,14.63
2022-10-22T02:53:35.518Z,14.60
2022-10-22T02:56:01.652Z,14.57
2022-10-22T02:58:27.773Z,14.49
2022-10-22T03:00:53.986Z,14.45
2022-10-22T03:03:20.153Z,14.41
2022-10-22T03:05:46.281Z,14.37
2022-10-22T03:08:12.720Z,14.33
2022-10-22T03:10:38.831Z,14.32
2022-10-22T03:13:04.982Z,14.35
2022-10-22T03:15:31.115Z,14.29
2022-10-22T03:17:57.220Z,14.27
2022-10-22T03:20:23.358Z,14.23
2022-10-22T03:22:49.509Z,14.25
2022-10-22T03:25:15.661Z,14.25
2022-10-22T03:27:42.232Z,14.28
2022-10-22T03:30:08.632Z,14.27
2022-10-22T03:32:34.749Z,14.27
2022-10-22T03:37:31.949Z,14.27
2022-10-22T03:39:58.063Z,14.32
2022-10-22T03:42:24.266Z,14.34
2022-10-22T03:44:50.403Z,14.27
2022-10-22T03:47:16.507Z,14.27
2022-10-22T03:49:42.640Z,14.25
2022-10-22T03:52:08.759Z,14.34
2022-10-22T03:54:34.934Z,14.23
2022-10-22T03:57:01.142Z,14.21
2022-10-22T03:59:27.307Z,14.11
2022-10-22T04:01:53.446Z,14.19
2022-10-22T04:04:19.554Z,14.07
2022-10-22T04:06:45.673Z,13.99
2022-10-22T04:09:11.846Z,13.93
2022-10-22T04:11:37.991Z,13.85
2022-10-22T04:14:04.123Z,13.71
2022-10-22T04:16:30.677Z,13.58
2022-10-22T04:18:56.833Z,13.50
2022-10-22T04:21:22.939Z,13.42
2022-10-22T04:23:49.066Z,13.32
2022-10-22T04:26:15.183Z,13.21
2022-10-22T04:28:41.311Z,13.12
2022-10-22T04:31:07.419Z,13.05
2022-10-22T04:33:33.566Z,12.95
2022-10-22T04:35:59.679Z,12.87
2022-10-22T04:38:25.791Z,12.81
2022-10-22T04:40:51.914Z,12.78
2022-10-22T04:43:18.030Z,12.78
2022-10-22T04:45:44.206Z,12.75
2022-10-22T04:48:10.390Z,12.69
2022-10-22T04:50:36.543Z,12.79
2022-10-22T04:53:02.673Z,12.81
2022-10-22T04:55:28.775Z,12.86
2022-10-22T04:57:54.907Z,12.89
2022-10-22T05:00:21.023Z,12.91
2022-10-22T05:02:47.124Z,12.93
2022-10-22T05:05:13.248Z,12.93
2022-10-22T05:07:39.594Z,12.99
2022-10-22T05:10:05.951Z,13.07
2022-10-22T05:12:32.106Z,13.24
2022-10-22T05:14:58.242Z,13.32
2022-10-22T05:17:24.353Z,13.31
2022-10-22T05:19:50.479Z,13.29
2022-10-22T05:22:16.625Z,13.28
2022-10-22T05:24:42.742Z,13.33
2022-10-22T05:27:08.939Z,13.31
2022-10-22T05:29:35.134Z,13.35
2022-10-22T05:32:01.255Z,13.38
2022-10-22T05:34:27.492Z,13.39
2022-10-22T05:36:53.612Z,13.38
2022-10-22T05:39:19.722Z,13.35
2022-10-22T05:41:45.862Z,13.40
2022-10-22T05:44:11.986Z,13.37
2022-10-22T05:46:38.111Z,13.39
2022-10-22T05:49:04.255Z,13.42
2022-10-22T05:51:30.394Z,13.38
2022-10-22T05:53:56.519Z,13.35
2022-10-22T05:56:22.630Z,13.31
2022-10-22T05:58:48.800Z,13.22
2022-10-22T06:01:15.035Z,13.15
2022-10-22T06:03:41.177Z,13.12
2022-10-22T06:06:07.315Z,13.08
2022-10-22T06:08:33.526Z,13.06
2022-10-22T06:10:59.706Z,13.02
2022-10-22T06:13:25.830Z,13.02
2022-10-22T06:15:51.950Z,13.00
2022-10-22T06:18:18.166Z,13.01
2022-10-22T06:20:44.280Z,13.08
2022-10-22T06:23:10.377Z,13.09
2022-10-22T06:25:41.587Z,13.08
2022-10-22T06:28:07.730Z,13.10
2022-10-22T06:30:36.897Z,13.16
2022-10-22T06:33:03.047Z,13.21
2022-10-22T06:35:29.205Z,13.25
2022-10-22T06:37:55.357Z,13.26
2022-10-22T06:40:21.525Z,13.32
2022-10-22T06:42:47.669Z,13.32
2022-10-22T06:45:14.093Z,13.35
2022-10-22T06:47:40.530Z,13.37
2022-10-22T06:50:15.599Z,13.35
2022-10-22T06:52:41.737Z,13.36
2022-10-22T06:55:07.894Z,13.41
2022-10-22T06:57:34.039Z,13.45
2022-10-22T07:00:01.218Z,13.49
2022-10-22T07:02:27.338Z,13.53
2022-10-22T07:04:53.517Z,13.59
2022-10-22T07:07:19.736Z,13.65
2022-10-22T07:09:45.890Z,13.75
2022-10-22T07:12:12.344Z,13.85
2022-10-22T07:14:38.529Z,13.97
2022-10-22T07:17:04.753Z,14.11
2022-10-22T07:19:30.903Z,14.24
2022-10-22T07:21:57.067Z,14.38
2022-10-22T07:24:23.227Z,14.47
2022-10-22T07:26:54.714Z,14.60
2022-10-22T07:29:20.836Z,14.71
2022-10-22T07:31:47.011Z,14.83
2022-10-22T07:37:05.945Z,15.06
2022-10-22T07:39:32.700Z,15.14
2022-10-22T07:41:58.827Z,15.19
2022-10-22T07:44:25.000Z,15.21
2022-10-22T07:46:51.363Z,15.24
2022-10-22T07:49:20.470Z,15.28
2022-10-22T07:51:50.523Z,15.27
2022-10-22T07:54:16.657Z,15.35
2022-10-22T07:56:42.797Z,15.46
2022-10-22T07:59:08.961Z,15.53
2022-10-22T08:01:41.954Z,15.60
2022-10-22T08:04:10.346Z,15.65
2022-10-22T08:06:38.277Z,15.66
2022-10-22T08:09:11.662Z,15.78
2022-10-22T08:11:41.670Z,15.88
2022-10-22T08:14:07.855Z,16.02
2022-10-22T08:16:34.062Z,16.14
2022-10-22T08:19:10.647Z,16.19
2022-10-22T08:21:41.211Z,16.52
2022-10-22T08:26:40.827Z,17.13
2022-10-22T08:29:16.947Z,17.97
2022-10-22T08:31:43.220Z,19.30
2022-10-22T08:34:11.740Z,20.55
2022-10-22T08:36:37.946Z,21.21
2022-10-22T08:39:04.126Z,21.84
2022-10-22T08:41:32.398Z,22.12
2022-10-22T08:43:58.650Z,21.68
2022-10-22T08:46:24.843Z,21.46
2022-10-22T08:48:51.057Z,20.85
2022-10-22T08:51:17.213Z,20.97
2022-10-22T08:53:43.404Z,20.55
2022-10-22T08:56:09.620Z,20.25
2022-10-22T08:58:35.783Z,20.05
2022-10-22T09:01:01.951Z,20.14
2022-10-22T09:03:28.122Z,20.14
2022-10-22T09:05:54.269Z,19.78
2022-10-22T09:08:20.478Z,19.79
2022-10-22T09:10:46.700Z,19.47
2022-10-22T09:13:12.891Z,19.53
2022-10-22T09:15:43.778Z,19.14
2022-10-22T09:18:19.581Z,18.80
2022-10-22T09:20:45.756Z,18.60
2022-10-22T09:23:22.460Z,18.52
2022-10-22T09:25:48.612Z,18.62
2022-10-22T09:28:14.843Z,18.64
2022-10-22T09:30:41.002Z,18.67
2022-10-22T09:33:08.127Z,18.63
2022-10-22T09:35:34.320Z,18.58
2022-10-22T09:38:04.289Z,18.70
2022-10-22T09:40:36.470Z,18.82
2022-10-22T09:43:04.448Z,19.07
2022-10-22T09:45:30.592Z,19.21
2022-10-22T09:48:01.887Z,19.25
2022-10-22T09:50:28.578Z,19.56
2022-10-22T09:52:54.709Z,19.58
2022-10-22T09:55:20.868Z,20.01
2022-10-22T09:57:47.282Z,20.08
2022-10-22T10:00:13.701Z,20.09
2022-10-22T10:02:39.836Z,20.41
2022-10-22T10:05:05.987Z,20.80
2022-10-22T10:07:32.190Z,20.78
2022-10-22T10:09:58.516Z,20.70
2022-10-22T10:12:24.715Z,20.92
2022-10-22T10:14:50.949Z,20.85
2022-10-22T10:17:17.087Z,20.97
2022-10-22T10:19:43.231Z,20.87
2022-10-22T10:22:09.449Z,20.84
2022-10-22T10:24:35.611Z,20.74
2022-10-22T10:27:01.772Z,20.64
2022-10-22T10:29:27.964Z,20.73
2022-10-22T10:31:54.140Z,20.88
2022-10-22T10:34:22.087Z,21.00
2022-10-22T10:36:48.259Z,21.56
2022-10-22T10:39:14.495Z,21.79
2022-10-22T10:41:40.646Z,22.02
2022-10-22T10:44:06.831Z,22.41
2022-10-22T10:46:36.256Z,22.75
2022-10-22T10:49:03.370Z,22.82
2022-10-22T10:51:29.680Z,22.77
2022-10-22T10:53:55.824Z,22.64
2022-10-22T10:56:21.986Z,22.34
2022-10-22T10:58:48.145Z,22.24
2022-10-22T11:01:14.303Z,22.03
2022-10-22T11:03:40.500Z,22.03
2022-10-22T11:06:06.661Z,22.14
2022-10-22T11:08:32.839Z,22.26
2022-10-22T11:10:59.080Z,22.05
2022-10-22T11:13:25.228Z,22.11
2022-10-22T11:15:51.341Z,21.89
2022-10-22T11:18:17.490Z,21.31
2022-10-22T11:20:43.595Z,21.01
2022-10-22T11:23:24.903Z,21.20
2022-10-22T11:25:51.507Z,20.93
2022-10-22T11:28:17.659Z,20.49
2022-10-22T11:30:43.815Z,20.16
2022-10-22T11:33:09.933Z,19.95
2022-10-22T11:35:36.047Z,19.68
2022-10-22T11:38:02.160Z,19.52
2022-10-22T11:40:28.352Z,19.67
2022-10-22T11:42:54.470Z,20.08
2022-10-22T11:45:20.593Z,20.51
2022-10-22T11:47:46.725Z,20.75
2022-10-22T11:50:12.855Z,20.83
2022-10-22T11:52:38.991Z,20.95
2022-10-22T11:55:05.108Z,21.10
2022-10-22T11:57:34.332Z,21.24
2022-10-22T12:00:00.486Z,21.22
2022-10-22T12:02:26.608Z,21.32
2022-10-22T12:04:52.829Z,21.34
2022-10-22T12:07:19.061Z,21.32
2022-10-22T12:09:45.252Z,21.30
2022-10-22T12:12:11.442Z,21.21
2022-10-22T12:14:37.566Z,21.10
2022-10-22T12:17:03.681Z,20.84
2022-10-22T12:19:29.816Z,20.81
2022-10-22T12:21:55.984Z,20.83
2022-10-22T12:24:22.101Z,20.85
2022-10-22T12:26:48.235Z,20.60
2022-10-22T12:29:14.382Z,20.74
2022-10-22T12:31:40.527Z,20.67
2022-10-22T12:34:06.693Z,20.81
2022-10-22T12:36:32.832Z,20.83
2022-10-22T12:38:58.957Z,20.75
2022-10-22T12:41:25.098Z,20.88
2022-10-22T12:43:51.202Z,20.91
2022-10-22T12:46:17.321Z,20.90
2022-10-22T12:48:43.504Z,20.97
2022-10-22T12:51:09.627Z,20.92
2022-10-22T12:53:35.757Z,20.94
2022-10-22T12:56:01.888Z,21.05
2022-10-22T12:58:28.012Z,20.94
2022-10-22T13:00:54.239Z,21.03
2022-10-22T13:03:20.394Z,21.02
2022-10-22T13:05:46.504Z,21.02
2022-10-22T13:08:12.656Z,21.17
2022-10-22T13:10:38.845Z,20.93
2022-10-22T13:13:04.983Z,21.05
2022-10-22T13:15:31.098Z,21.36
2022-10-22T13:17:57.294Z,21.13
2022-10-22T13:20:23.426Z,20.93
2022-10-22T13:22:49.543Z,21.04
2022-10-22T13:25:15.672Z,21.37
2022-10-22T13:27:41.969Z,21.47
2022-10-22T13:30:08.208Z,21.51
2022-10-22T13:32:34.358Z,21.21
2022-10-22T13:35:00.482Z,20.99
2022-10-22T13:37:26.613Z,20.72
2022-10-22T13:39:52.736Z,20.46
2022-10-22T13:42:18.881Z,20.34
2022-10-22T13:44:45.007Z,20.21
2022-10-22T13:47:11.153Z,20.17
2022-10-22T13:52:17.360Z,20.12
2022-10-22T13:54:43.496Z,20.19
2022-10-22T13:57:09.630Z,20.18
2022-10-22T13:59:36.372Z,20.13
2022-10-22T14:02:02.547Z,20.13
2022-10-22T14:04:28.679Z,20.11
2022-10-22T14:06:56.744Z,20.12
2022-10-22T14:09:25.379Z,20.17
2022-10-22T14:11:51.495Z,20.17
2022-10-22T14:14:17.636Z,20.16
2022-10-22T14:16:43.773Z,20.16
2022-10-22T14:19:10.514Z,20.17
2022-10-22T14:21:36.653Z,20.17
2022-10-22T14:24:02.817Z,20.13
2022-10-22T14:26:28.976Z,20.14
2022-10-22T14:29:11.633Z,20.09
2022-10-22T14:31:38.189Z,20.03
2022-10-22T14:34:04.328Z,20.08
2022-10-22T14:36:30.460Z,20.04
2022-10-22T14:38:56.577Z,20.02
2022-10-22T14:41:22.734Z,19.99
2022-10-22T14:43:48.871Z,19.94
2022-10-22T14:46:15.010Z,20.13
2022-10-22T14:48:41.160Z,20.45
2022-10-22T14:51:09.180Z,20.76
2022-10-22T14:53:35.349Z,20.99
2022-10-22T14:56:01.593Z,21.10
2022-10-22T14:58:28.456Z,21.15
2022-10-22T15:00:54.693Z,21.11
2022-10-22T15:03:20.900Z,21.06
2022-10-22T15:05:47.033Z,21.02
2022-10-22T15:08:13.658Z,21.05
2022-10-22T15:10:39.782Z,21.07
2022-10-22T15:13:05.967Z,21.14
2022-10-22T15:15:36.672Z,21.25
2022-10-22T15:18:05.535Z,21.36
2022-10-22T15:20:31.680Z,21.48
2022-10-22T15:22:57.834Z,21.48
2022-10-22T15:25:23.975Z,21.21
2022-10-22T15:27:51.778Z,20.83
2022-10-22T15:30:19.640Z,20.46
2022-10-22T15:32:45.826Z,20.01
2022-10-22T15:35:11.935Z,19.73
2022-10-22T15:37:38.058Z,19.44
2022-10-22T15:40:04.218Z,19.28
2022-10-22T15:42:30.388Z,19.04
2022-10-22T15:44:56.510Z,18.86
2022-10-22T15:47:22.632Z,18.69
2022-10-22T15:49:48.980Z,18.55
2022-10-22T15:52:15.165Z,18.39
2022-10-22T15:54:41.283Z,18.27
2022-10-22T15:57:07.408Z,18.12
2022-10-22T15:59:33.532Z,18.01
2022-10-22T16:01:59.682Z,17.85
2022-10-22T16:04:25.813Z,17.75
2022-10-22T16:06:51.930Z,17.57
2022-10-22T16:09:18.159Z,17.43
2022-10-22T16:11:44.354Z,17.25
2022-10-22T16:14:10.512Z,17.17
2022-10-22T16:16:36.643Z,17.05
2022-10-22T16:19:02.777Z,16.96
2022-10-22T16:21:28.911Z,16.85
2022-10-22T16:23:55.033Z,16.73
2022-10-22T16:26:21.160Z,16.59
2022-10-22T16:28:47.344Z,16.48
2022-10-22T16:31:13.461Z,16.36
2022-10-22T16:33:43.089Z,16.29
2022-10-22T16:36:12.522Z,16.21
2022-10-22T16:38:38.686Z,16.12
2022-10-22T16:41:04.840Z,16.04
2022-10-22T16:43:30.999Z,15.94
2022-10-22T16:45:57.250Z,15.90
2022-10-22T16:48:23.394Z,15.80
2022-10-22T16:50:49.541Z,15.67
2022-10-22T16:53:15.682Z,15.63
2022-10-22T16:55:41.826Z,15.56
2022-10-22T16:58:07.941Z,15.52
2022-10-22T17:00:35.416Z,15.47
2022-10-22T17:03:01.580Z,15.37
2022-10-22T17:05:27.723Z,15.31
2022-10-22T17:07:53.828Z,15.26
2022-10-22T17:10:20.035Z,15.21
2022-10-22T17:12:46.248Z,15.13
2022-10-22T17:15:12.354Z,15.06
2022-10-22T17:17:38.464Z,14.98
2022-10-22T17:20:04.628Z,14.91
2022-10-22T17:22:30.786Z,14.87
2022-10-22T17:24:56.901Z,14.84
2022-10-22T17:27:23.025Z,14.80
2022-10-22T17:29:49.122Z,14.73
2022-10-22T17:32:15.261Z,14.67
2022-10-22T17:34:41.408Z,14.67
2022-10-22T17:37:07.533Z,14.58
2022-10-22T17:39:33.668Z,14.56
2022-10-22T17:41:59.813Z,14.53
2022-10-22T17:44:25.958Z,14.50
2022-10-22T17:46:52.069Z,14.46
2022-10-22T17:49:18.159Z,14.43
2022-10-22T17:51:44.307Z,14.40
2022-10-22T17:54:13.268Z,14.36
2022-10-22T17:56:39.560Z,14.39
2022-10-22T17:59:05.950Z,14.38
2022-10-22T18:01:32.130Z,14.37
2022-10-22T18:03:58.308Z,14.35
2022-10-22T18:06:24.930Z,14.28
2022-10-22T18:08:51.177Z,14.25
2022-10-22T18:11:17.411Z,14.25
2022-10-22T18:13:43.529Z,14.19
2022-10-22T18:16:09.649Z,14.08
2022-10-22T18:18:35.780Z,14.06
2022-10-22T18:21:01.904Z,14.02
2022-10-22T18:23:28.047Z,14.00
2022-10-22T18:25:54.151Z,13.96
2022-10-22T18:28:20.292Z,13.92
2022-10-22T18:30:46.516Z,13.91
2022-10-22T18:33:12.714Z,13.85
2022-10-22T18:35:38.839Z,13.83
2022-10-22T18:38:04.964Z,13.78
2022-10-22T18:40:31.175Z,13.75
2022-10-22T18:42:57.315Z,13.74
2022-10-22T18:45:23.447Z,13.70
2022-10-22T18:47:49.587Z,13.65
2022-10-22T18:50:15.826Z,13.64
2022-10-22T18:52:42.181Z,13.64
2022-10-22T18:55:08.462Z,13.63
2022-10-22T18:57:34.586Z,13.59
2022-10-22T19:00:00.835Z,13.55
2022-10-22T19:02:27.022Z,13.52
2022-10-22T19:04:53.173Z,13.51
2022-10-22T19:07:19.291Z,13.47
2022-10-22T19:09:45.440Z,13.45
2022-10-22T19:12:11.609Z,13.42
2022-10-22T19:14:37.889Z,13.42
2022-10-22T19:17:04.018Z,13.36
2022-10-22T19:19:30.165Z,13.35
2022-10-22T19:21:56.314Z,13.33
2022-10-22T19:24:22.446Z,13.33
2022-10-22T19:26:48.622Z,13.31
2022-10-22T19:29:14.729Z,13.32
2022-10-22T19:31:40.920Z,13.30
2022-10-22T19:34:07.126Z,13.27
2022-10-22T19:36:33.241Z,13.28
2022-10-22T19:38:59.394Z,13.28
2022-10-22T19:41:25.593Z,13.27
2022-10-22T19:43:51.723Z,13.24
2022-10-22T19:46:17.884Z,13.22
2022-10-22T19:51:15.172Z,13.19
2022-10-22T19:53:41.333Z,13.17
2022-10-22T19:56:07.510Z,13.18
2022-10-22T19:58:33.639Z,13.14
2022-10-22T20:15:05.632Z,13.04
2022-10-22T20:17:31.835Z,13.03
2022-10-22T20:19:57.989Z,13.00
2022-10-22T20:22:24.121Z,13.00
2022-10-22T20:24:50.238Z,12.97
2022-10-22T20:27:16.391Z,12.95
2022-10-22T20:29:42.500Z,12.92
2022-10-22T20:32:08.976Z,12.91
2022-10-22T20:34:35.200Z,12.88
2022-10-22T20:37:01.333Z,12.85
2022-10-22T20:39:27.445Z,12.81
2022-10-22T20:41:53.596Z,12.81
2022-10-22T20:44:19.717Z,12.77
2022-10-22T20:46:45.927Z,12.77
2022-10-22T20:49:12.122Z,12.74
2022-10-22T20:51:38.238Z,12.72
2022-10-22T20:54:04.379Z,12.71
2022-10-22T20:56:30.508Z,12.70
2022-10-22T20:58:56.652Z,12.71
2022-10-22T21:01:22.836Z,12.69
2022-10-22T21:03:49.046Z,12.69
2022-10-22T21:06:15.211Z,12.70
2022-10-22T21:08:41.432Z,12.69
2022-10-22T21:11:07.685Z,12.68
2022-10-22T21:13:33.845Z,12.67
2022-10-22T21:15:59.977Z,12.64
2022-10-22T21:18:26.155Z,12.63
2022-10-22T21:20:52.289Z,12.64
2022-10-22T21:23:18.405Z,12.60
2022-10-22T21:25:44.815Z,12.60
2022-10-22T21:28:11.695Z,12.57
2022-10-22T21:30:37.830Z,12.53
2022-10-22T21:33:03.946Z,12.51
2022-10-22T21:35:30.079Z,12.47
2022-10-22T21:37:56.262Z,12.47
2022-10-22T21:40:22.379Z,12.41
2022-10-22T21:42:48.526Z,12.39
2022-10-22T21:45:19.978Z,12.38
2022-10-22T21:47:48.337Z,12.35
2022-10-22T21:50:14.478Z,12.35
2022-10-22T21:52:40.614Z,12.33
2022-10-22T21:55:06.729Z,12.29
2022-10-22T21:57:32.873Z,12.29
2022-10-22T21:59:58.988Z,12.29
2022-10-22T22:02:25.137Z,12.24
2022-10-22T22:04:51.267Z,12.18
2022-10-22T22:07:17.371Z,12.21
2022-10-22T22:09:43.549Z,12.15
2022-10-22T22:12:09.690Z,12.11
2022-10-22T22:14:35.848Z,12.08
2022-10-22T22:17:01.973Z,12.07
2022-10-22T22:19:28.074Z,12.04
2022-10-22T22:21:54.207Z,12.03
2022-10-22T22:24:20.314Z,12.02
2022-10-22T22:26:46.448Z,12.00
2022-10-22T22:29:12.584Z,12.02
2022-10-22T22:31:38.713Z,12.01
2022-10-22T22:34:04.852Z,12.03
2022-10-22T22:36:30.991Z,12.06
2022-10-22T22:38:57.125Z,12.07
2022-10-22T22:41:23.264Z,12.07
2022-10-22T22:43:49.402Z,12.05
2022-10-22T22:46:15.590Z,12.04
2022-10-22T22:48:41.700Z,12.00
2022-10-22T22:51:07.820Z,11.99
2022-10-22T22:53:33.940Z,11.98
2022-10-22T22:56:00.050Z,11.90
2022-10-22T22:58:26.199Z,11.92
2022-10-22T23:00:52.361Z,11.91
2022-10-22T23:03:18.509Z,11.87
2022-10-22T23:05:44.634Z,11.84
2022-10-22T23:08:10.775Z,11.81
2022-10-22T23:10:37.056Z,11.81
2022-10-22T23:13:03.230Z,11.76
2022-10-22T23:15:29.405Z,11.75
2022-10-22T23:17:55.517Z,11.73
2022-10-22T23:20:21.622Z,11.71
2022-10-22T23:22:47.750Z,11.70
2022-10-22T23:25:13.877Z,11.68
2022-10-22T23:27:40.272Z,11.65
2022-10-22T23:30:06.586Z,11.66
2022-10-22T23:32:32.698Z,11.65
2022-10-22T23:34:58.829Z,11.62
2022-10-22T23:37:24.968Z,11.63
2022-10-22T23:39:51.109Z,11.63
2022-10-22T23:42:17.214Z,11.67
2022-10-22T23:44:43.377Z,11.70
2022-10-22T23:47:09.513Z,11.71
2022-10-22T23:49:35.681Z,11.76
2022-10-22T23:52:01.796Z,11.70
2022-10-22T23:54:27.920Z,11.70
2022-10-22T23:56:54.054Z,11.70
2022-10-22T23:59:20.163Z,11.72
